createdAt,value
2022-09-26T00:00:54.828Z,1.30
2022-09-26T00:03:21.475Z,1.10
2022-09-26T00:05:48.026Z,1.30
2022-09-26T00:08:14.564Z,1.20
2022-09-26T00:10:41.133Z,1.13
2022-09-26T00:13:07.718Z,1.20
2022-09-26T00:15:34.248Z,0.90
2022-09-26T00:18:00.830Z,1.20
2022-09-26T00:20:27.500Z,1.10
2022-09-26T00:22:54.042Z,1.40
2022-09-26T00:25:20.585Z,1.30
2022-09-26T00:27:47.130Z,1.00
2022-09-26T00:30:13.673Z,1.40
2022-09-26T00:32:40.219Z,1.10
2022-09-26T00:35:07.228Z,1.17
2022-09-26T00:37:33.768Z,1.47
2022-09-26T00:40:00.312Z,1.10
2022-09-26T00:42:26.844Z,1.17
2022-09-26T00:44:56.705Z,1.10
2022-09-26T00:47:50.475Z,1.00
2022-09-26T00:50:20.902Z,1.10
2022-09-26T00:53:02.208Z,1.50
2022-09-26T00:55:36.246Z,1.20
2022-09-26T00:58:14.505Z,1.50
2022-09-26T01:00:42.394Z,1.10
2022-09-26T01:03:09.140Z,0.90
2022-09-26T01:05:35.771Z,1.00
2022-09-26T01:08:02.312Z,1.10
2022-09-26T01:10:29.986Z,1.07
2022-09-26T01:12:57.399Z,1.07
2022-09-26T01:15:24.077Z,0.90
2022-09-26T01:17:50.717Z,1.00
2022-09-26T01:20:27.916Z,1.03
2022-09-26T01:23:35.790Z,1.30
2022-09-26T01:26:18.265Z,0.93
2022-09-26T01:29:13.622Z,1.07
2022-09-26T01:32:27.359Z,1.40
2022-09-26T01:35:18.201Z,1.60
2022-09-26T01:38:21.705Z,1.23
2022-09-26T01:41:08.615Z,1.10
2022-09-26T01:43:50.418Z,1.17
2022-09-26T01:46:35.110Z,1.00
2022-09-26T01:49:14.300Z,1.10
2022-09-26T01:52:12.939Z,1.00
2022-09-26T01:55:08.160Z,1.10
2022-09-26T01:57:40.081Z,1.20
2022-09-26T02:00:07.469Z,1.13
2022-09-26T02:02:36.403Z,1.07
2022-09-26T02:05:33.117Z,0.80
2022-09-26T02:08:01.188Z,1.00
2022-09-26T02:10:40.155Z,0.80
2022-09-26T02:13:17.957Z,1.17
2022-09-26T02:15:46.617Z,1.10
2022-09-26T02:18:46.805Z,1.20
2022-09-26T02:21:16.387Z,1.07
2022-09-26T02:23:42.938Z,0.97
2022-09-26T02:26:09.702Z,1.00
2022-09-26T02:28:36.270Z,1.50
2022-09-26T02:31:03.171Z,1.33
2022-09-26T02:33:29.717Z,1.13
2022-09-26T02:35:56.326Z,1.20
2022-09-26T02:38:30.265Z,1.17
2022-09-26T02:41:14.287Z,1.27
2022-09-26T02:43:53.733Z,1.20
2022-09-26T02:46:40.663Z,1.00
2022-09-26T02:49:29.105Z,0.93
2022-09-26T02:52:02.899Z,1.07
2022-09-26T02:54:47.141Z,0.97
2022-09-26T02:57:32.313Z,1.13
2022-09-26T03:00:18.542Z,1.13
2022-09-26T03:02:58.083Z,0.97
2022-09-26T03:05:26.144Z,1.17
2022-09-26T03:08:09.405Z,1.20
2022-09-26T03:10:35.974Z,1.10
2022-09-26T03:13:08.938Z,1.10
2022-09-26T03:15:35.500Z,1.13
2022-09-26T03:18:02.052Z,0.87
2022-09-26T03:20:28.613Z,1.33
2022-09-26T03:22:55.417Z,0.90
2022-09-26T03:25:26.196Z,1.33
2022-09-26T03:27:53.036Z,1.50
2022-09-26T03:30:19.855Z,0.90
2022-09-26T03:32:46.517Z,1.10
2022-09-26T03:35:13.209Z,1.00
2022-09-26T03:37:39.755Z,0.97
2022-09-26T03:40:08.484Z,1.00
2022-09-26T03:42:35.328Z,0.80
2022-09-26T03:45:02.357Z,1.07
2022-09-26T03:47:28.944Z,1.10
2022-09-26T03:49:56.072Z,0.90
2022-09-26T03:52:22.650Z,1.10
2022-09-26T03:54:49.196Z,0.83
2022-09-26T03:57:15.949Z,0.80
2022-09-26T03:59:42.502Z,1.10
2022-09-26T04:02:09.134Z,1.20
2022-09-26T04:04:35.885Z,0.80
2022-09-26T04:07:02.436Z,1.43
2022-09-26T04:09:28.993Z,0.87
2022-09-26T04:11:55.539Z,1.07
2022-09-26T04:14:22.109Z,1.17
2022-09-26T04:16:48.747Z,0.70
2022-09-26T04:19:15.531Z,0.80
2022-09-26T04:21:42.304Z,1.10
2022-09-26T04:24:13.492Z,1.10
2022-09-26T04:26:43.686Z,0.90
2022-09-26T04:29:10.293Z,1.20
2022-09-26T04:31:36.978Z,0.90
2022-09-26T04:34:04.985Z,1.03
2022-09-26T04:36:31.606Z,1.00
2022-09-26T04:39:00.581Z,1.03
2022-09-26T04:41:27.922Z,1.03
2022-09-26T04:43:54.817Z,1.10
2022-09-26T04:46:26.898Z,1.00
2022-09-26T04:48:56.982Z,0.87
2022-09-26T04:51:24.239Z,0.80
2022-09-26T04:53:51.321Z,1.00
2022-09-26T04:56:18.641Z,0.90
2022-09-26T04:58:45.376Z,0.80
2022-09-26T05:01:16.360Z,1.00
2022-09-26T05:03:43.084Z,1.30
2022-09-26T05:06:09.996Z,0.87
2022-09-26T05:08:37.506Z,1.00
2022-09-26T05:11:04.130Z,0.73
2022-09-26T05:13:31.284Z,0.87
2022-09-26T05:16:01.400Z,1.00
2022-09-26T05:18:28.136Z,1.00
2022-09-26T05:20:54.968Z,1.00
2022-09-26T05:23:44.816Z,1.00
2022-09-26T05:26:39.405Z,0.80
2022-09-26T05:29:08.844Z,1.20
2022-09-26T05:31:37.518Z,0.80
2022-09-26T05:34:05.116Z,0.90
2022-09-26T05:36:31.697Z,0.87
2022-09-26T05:38:58.306Z,0.90
2022-09-26T05:41:31.029Z,1.20
2022-09-26T05:43:57.642Z,0.90
2022-09-26T05:46:24.408Z,1.00
2022-09-26T05:48:51.023Z,1.00
2022-09-26T05:51:19.524Z,0.87
2022-09-26T05:53:46.133Z,1.10
2022-09-26T05:56:18.302Z,0.90
2022-09-26T05:58:45.510Z,0.93
2022-09-26T06:01:13.740Z,0.90
2022-09-26T06:03:44.197Z,0.87
2022-09-26T06:06:12.137Z,0.90
2022-09-26T06:08:39.094Z,0.90
2022-09-26T06:11:10.462Z,1.10
2022-09-26T06:13:37.074Z,0.97
2022-09-26T06:16:08.413Z,0.87
2022-09-26T06:18:38.502Z,1.10
2022-09-26T06:21:06.020Z,0.93
2022-09-26T06:23:34.166Z,1.10
2022-09-26T06:26:01.274Z,0.80
2022-09-26T06:28:27.900Z,1.30
2022-09-26T06:30:54.538Z,0.90
2022-09-26T06:33:21.194Z,1.13
2022-09-26T06:35:47.746Z,0.93
2022-09-26T06:38:14.403Z,1.07
2022-09-26T06:40:41.002Z,0.80
2022-09-26T06:43:07.576Z,1.10
2022-09-26T06:45:34.626Z,1.00
2022-09-26T06:48:02.395Z,1.03
2022-09-26T06:50:29.021Z,0.90
2022-09-26T06:52:55.552Z,0.83
2022-09-26T06:55:22.408Z,0.80
2022-09-26T06:57:48.962Z,1.10
2022-09-26T07:00:18.704Z,1.20
2022-09-26T07:02:52.336Z,0.87
2022-09-26T07:05:19.830Z,0.70
2022-09-26T07:07:46.733Z,0.90
2022-09-26T07:10:14.072Z,0.90
2022-09-26T07:12:43.882Z,1.10
2022-09-26T07:15:13.710Z,1.10
2022-09-26T07:17:40.906Z,0.90
2022-09-26T07:20:09.940Z,1.03
2022-09-26T07:22:36.749Z,0.90
2022-09-26T07:25:04.012Z,0.87
2022-09-26T07:27:30.555Z,1.20
2022-09-26T07:29:58.227Z,0.97
2022-09-26T07:32:25.577Z,2.23
2022-09-26T07:34:53.103Z,1.60
2022-09-26T07:37:19.656Z,1.50
2022-09-26T07:39:47.451Z,1.47
2022-09-26T07:42:17.239Z,1.30
2022-09-26T07:47:53.064Z,1.40
2022-09-26T07:50:19.864Z,1.00
2022-09-26T07:52:47.493Z,0.70
2022-09-26T07:55:16.514Z,1.07
2022-09-26T07:57:43.073Z,1.17
2022-09-26T08:00:12.821Z,1.00
2022-09-26T08:02:40.637Z,1.17
2022-09-26T08:05:07.622Z,1.40
2022-09-26T08:07:35.407Z,1.60
2022-09-26T08:10:02.987Z,1.50
2022-09-26T08:12:33.927Z,1.30
2022-09-26T08:15:00.590Z,1.80
2022-09-26T08:17:32.402Z,1.50
2022-09-26T08:20:00.116Z,2.10
2022-09-26T08:22:26.818Z,2.13
2022-09-26T08:24:54.764Z,1.43
2022-09-26T08:27:22.617Z,1.70
2022-09-26T08:29:50.877Z,2.70
2022-09-26T08:32:20.667Z,1.97
2022-09-26T08:34:47.562Z,1.90
2022-09-26T08:37:14.178Z,2.27
2022-09-26T08:39:40.718Z,2.13
2022-09-26T08:42:32.770Z,1.87
2022-09-26T08:46:11.543Z,2.67
2022-09-26T08:48:50.091Z,2.07
2022-09-26T08:51:37.768Z,2.47
2022-09-26T08:54:24.592Z,1.77
2022-09-26T08:56:54.205Z,2.13
2022-09-26T08:59:40.909Z,2.30
2022-09-26T09:02:38.964Z,1.87
2022-09-26T09:05:08.677Z,2.50
2022-09-26T09:07:35.229Z,2.67
2022-09-26T09:10:04.741Z,1.90
2022-09-26T09:12:41.957Z,2.10
2022-09-26T09:15:26.033Z,2.30
2022-09-26T09:18:17.922Z,2.57
2022-09-26T09:21:11.626Z,2.50
2022-09-26T09:23:58.614Z,1.70
2022-09-26T09:30:16.530Z,1.93
2022-09-26T09:32:47.721Z,2.13
2022-09-26T09:35:15.206Z,2.00
2022-09-26T09:37:47.852Z,2.07
2022-09-26T09:40:29.705Z,2.40
2022-09-26T09:43:07.680Z,1.73
2022-09-26T09:45:51.033Z,1.77
2022-09-26T09:48:17.616Z,2.10
2022-09-26T09:50:53.016Z,1.80
2022-09-26T09:53:39.367Z,1.30
2022-09-26T09:56:18.688Z,1.70
2022-09-26T09:59:09.207Z,1.77
2022-09-26T10:01:41.366Z,1.80
2022-09-26T10:04:44.036Z,1.57
2022-09-26T10:07:10.750Z,1.67
2022-09-26T10:09:40.742Z,1.50
2022-09-26T10:12:18.097Z,1.73
2022-09-26T10:14:50.454Z,1.77
2022-09-26T10:17:19.449Z,1.50
2022-09-26T10:19:46.137Z,1.70
2022-09-26T10:22:29.143Z,2.17
2022-09-26T10:25:04.969Z,2.03
2022-09-26T10:27:36.987Z,1.73
2022-09-26T10:30:33.555Z,1.40
2022-09-26T10:33:00.896Z,1.50
2022-09-26T10:35:44.578Z,1.80
2022-09-26T10:38:20.944Z,2.10
2022-09-26T10:40:55.062Z,2.50
2022-09-26T10:43:31.758Z,1.43
2022-09-26T10:46:09.432Z,2.00
2022-09-26T10:48:55.054Z,2.00
2022-09-26T10:51:36.017Z,1.83
2022-09-26T10:54:13.330Z,1.50
2022-09-26T10:56:45.722Z,2.10
2022-09-26T10:59:13.584Z,2.10
2022-09-26T11:01:43.974Z,2.13
2022-09-26T11:04:40.009Z,2.10
2022-09-26T11:07:08.467Z,2.03
2022-09-26T11:09:35.355Z,2.30
2022-09-26T11:12:23.749Z,2.90
2022-09-26T11:15:10.814Z,2.67
2022-09-26T11:17:51.147Z,2.30
2022-09-26T11:20:23.807Z,2.20
2022-09-26T11:23:02.844Z,1.97
2022-09-26T11:25:47.512Z,2.40
2022-09-26T11:28:41.865Z,1.80
2022-09-26T11:31:15.823Z,2.10
2022-09-26T11:33:45.142Z,2.30
2022-09-26T11:36:17.977Z,2.10
2022-09-26T11:38:47.420Z,2.23
2022-09-26T11:41:38.212Z,1.90
2022-09-26T11:44:26.648Z,2.00
2022-09-26T11:47:36.927Z,1.90
2022-09-26T11:50:20.324Z,2.37
2022-09-26T11:53:09.336Z,1.70
2022-09-26T11:56:02.445Z,2.00
2022-09-26T11:58:50.090Z,1.87
2022-09-26T12:01:20.111Z,1.60
2022-09-26T12:03:56.006Z,2.13
2022-09-26T12:07:02.274Z,2.03
2022-09-26T12:09:45.680Z,2.07
2022-09-26T12:12:26.694Z,2.23
2022-09-26T12:15:12.705Z,1.80
2022-09-26T12:17:59.515Z,2.07
2022-09-26T12:20:41.326Z,1.63
2022-09-26T12:23:17.452Z,2.10
2022-09-26T12:26:42.242Z,1.90
2022-09-26T12:29:27.922Z,3.53
2022-09-26T12:32:14.532Z,2.80
2022-09-26T12:34:51.938Z,2.00
2022-09-26T12:37:33.709Z,2.60
2022-09-26T12:40:25.395Z,3.43
2022-09-26T12:43:29.798Z,3.00
2022-09-26T12:46:02.836Z,2.20
2022-09-26T12:48:51.373Z,2.10
2022-09-26T12:51:44.706Z,1.93
2022-09-26T12:54:23.484Z,2.00
2022-09-26T12:57:08.473Z,2.47
2022-09-26T12:59:54.436Z,2.07
2022-09-26T13:02:37.131Z,2.03
2022-09-26T13:05:36.853Z,2.30
2022-09-26T13:08:09.000Z,2.20
2022-09-26T13:11:07.750Z,1.93
2022-09-26T13:14:06.039Z,2.40
2022-09-26T13:16:54.592Z,2.23
2022-09-26T13:19:29.242Z,1.50
2022-09-26T13:22:27.366Z,2.77
2022-09-26T13:25:02.245Z,2.20
2022-09-26T13:27:36.102Z,1.80
2022-09-26T13:30:08.099Z,2.03
2022-09-26T13:32:59.871Z,2.60
2022-09-26T13:35:28.043Z,2.70
2022-09-26T13:38:15.474Z,3.27
2022-09-26T13:41:01.069Z,2.53
2022-09-26T13:43:34.100Z,4.20
2022-09-26T13:46:31.753Z,5.03
2022-09-26T13:49:17.076Z,5.63
2022-09-26T13:51:49.778Z,4.77
2022-09-26T13:54:27.234Z,3.53
2022-09-26T13:56:54.366Z,3.40
2022-09-26T13:59:32.276Z,8.40
2022-09-26T14:02:18.271Z,6.10
2022-09-26T14:05:03.270Z,4.53
2022-09-26T14:07:57.312Z,4.63
2022-09-26T14:10:26.869Z,4.03
2022-09-26T14:13:12.607Z,8.90
2022-09-26T14:15:50.927Z,4.87
2022-09-26T14:18:53.808Z,17.13
2022-09-26T14:21:34.240Z,10.30
2022-09-26T14:24:35.730Z,10.80
2022-09-26T14:27:11.346Z,14.10
2022-09-26T14:29:42.352Z,9.93
2022-09-26T14:32:10.148Z,8.10
2022-09-26T14:34:54.518Z,7.73
2022-09-26T14:37:26.616Z,6.53
2022-09-26T14:40:06.200Z,6.43
2022-09-26T14:42:47.546Z,5.27
2022-09-26T14:45:17.109Z,6.53
2022-09-26T14:47:49.042Z,6.37
2022-09-26T14:50:20.504Z,6.13
2022-09-26T14:52:54.527Z,5.73
2022-09-26T14:55:21.090Z,5.60
2022-09-26T14:57:48.421Z,5.73
2022-09-26T15:00:40.730Z,4.90
2022-09-26T15:03:12.659Z,5.27
2022-09-26T15:05:40.944Z,5.20
2022-09-26T15:08:24.733Z,5.57
2022-09-26T15:10:51.513Z,5.33
2022-09-26T15:13:17.990Z,4.50
2022-09-26T15:15:58.278Z,5.10
2022-09-26T15:18:27.579Z,4.77
2022-09-26T15:21:04.004Z,5.70
2022-09-26T15:23:33.333Z,4.87
2022-09-26T15:26:02.488Z,5.37
2022-09-26T15:28:31.581Z,4.80
2022-09-26T15:31:24.112Z,5.33
2022-09-26T15:34:01.783Z,4.80
2022-09-26T15:36:33.468Z,4.87
2022-09-26T15:39:00.361Z,5.10
2022-09-26T15:41:45.419Z,4.30
2022-09-26T15:44:20.281Z,4.97
2022-09-26T15:46:49.975Z,5.17
2022-09-26T15:49:21.206Z,4.80
2022-09-26T15:51:50.920Z,5.00
2022-09-26T15:54:26.073Z,5.43
2022-09-26T15:56:52.654Z,4.60
2022-09-26T15:59:32.174Z,5.30
2022-09-26T16:01:59.194Z,5.07
2022-09-26T16:04:29.566Z,4.07
2022-09-26T16:07:03.256Z,4.90
2022-09-26T16:09:40.140Z,4.93
2022-09-26T16:12:15.835Z,4.07
2022-09-26T16:14:51.940Z,5.10
2022-09-26T16:17:38.571Z,5.07
2022-09-26T16:20:16.946Z,4.43
2022-09-26T16:22:51.455Z,5.23
2022-09-26T16:25:20.817Z,4.53
2022-09-26T16:27:58.021Z,4.33
2022-09-26T16:30:27.377Z,4.47
2022-09-26T16:33:02.969Z,4.30
2022-09-26T16:35:30.105Z,4.60
2022-09-26T16:37:59.491Z,4.63
2022-09-26T16:40:27.474Z,4.00
2022-09-26T16:42:54.154Z,4.47
2022-09-26T16:45:20.744Z,4.20
2022-09-26T16:47:50.048Z,3.87
2022-09-26T16:50:24.584Z,4.30
2022-09-26T16:52:52.197Z,4.07
2022-09-26T16:55:18.788Z,4.03
2022-09-26T16:57:55.623Z,4.18
2022-09-26T17:00:52.578Z,4.10
2022-09-26T17:03:24.761Z,4.27
2022-09-26T17:05:52.058Z,4.30
2022-09-26T17:08:18.645Z,3.97
2022-09-26T17:10:45.951Z,4.23
2022-09-26T17:13:21.623Z,4.57
2022-09-26T17:15:48.997Z,3.80
2022-09-26T17:18:17.453Z,3.80
2022-09-26T17:20:44.497Z,3.90
2022-09-26T17:23:38.194Z,3.80
2022-09-26T17:26:01.238Z,3.60
2022-09-26T17:28:38.848Z,3.90
2022-09-26T17:31:07.527Z,3.97
2022-09-26T17:33:36.613Z,4.00
2022-09-26T17:36:04.262Z,4.20
2022-09-26T17:38:30.832Z,3.67
2022-09-26T17:40:57.507Z,3.83
2022-09-26T17:43:24.076Z,3.87
2022-09-26T17:45:54.163Z,4.20
2022-09-26T17:48:28.432Z,4.07
2022-09-26T17:50:55.533Z,4.27
2022-09-26T17:53:22.326Z,4.10
2022-09-26T17:55:48.989Z,4.23
2022-09-26T17:58:15.806Z,4.17
2022-09-26T18:00:43.494Z,4.23
2022-09-26T18:03:29.931Z,3.47
2022-09-26T18:05:56.502Z,3.67
2022-09-26T18:08:28.433Z,3.70
2022-09-26T18:10:59.964Z,3.70
2022-09-26T18:13:31.347Z,4.10
2022-09-26T18:15:58.696Z,4.27
2022-09-26T18:18:29.118Z,3.30
2022-09-26T18:20:57.203Z,3.37
2022-09-26T18:23:28.984Z,3.37
2022-09-26T18:25:56.505Z,3.70
2022-09-26T18:28:23.316Z,3.50
2022-09-26T18:30:55.589Z,3.83
2022-09-26T18:33:24.766Z,3.90
2022-09-26T18:35:51.523Z,3.80
2022-09-26T18:38:18.557Z,3.40
2022-09-26T18:40:50.226Z,3.50
2022-09-26T18:43:18.352Z,3.27
2022-09-26T18:45:44.941Z,3.50
2022-09-26T18:48:14.090Z,3.60
2022-09-26T18:50:40.628Z,3.10
2022-09-26T18:53:14.323Z,3.20
2022-09-26T18:55:59.394Z,3.63
2022-09-26T18:58:29.101Z,4.27
2022-09-26T19:01:06.980Z,3.50
2022-09-26T19:03:35.295Z,3.17
2022-09-26T19:06:11.659Z,3.27
2022-09-26T19:08:45.678Z,3.57
2022-09-26T19:11:14.805Z,3.33
2022-09-26T19:13:45.997Z,3.37
2022-09-26T19:16:12.658Z,3.37
2022-09-26T19:18:40.585Z,3.20
2022-09-26T19:21:21.709Z,3.33
2022-09-26T19:23:48.259Z,3.63
2022-09-26T19:26:31.829Z,3.10
2022-09-26T19:28:58.782Z,2.90
2022-09-26T19:31:25.869Z,3.33
2022-09-26T19:33:52.509Z,3.17
2022-09-26T19:36:19.068Z,3.13
2022-09-26T19:38:45.727Z,3.33
2022-09-26T19:41:12.504Z,3.30
2022-09-26T19:43:39.102Z,2.97
2022-09-26T19:46:08.836Z,2.90
2022-09-26T19:48:38.829Z,3.10
2022-09-26T19:51:06.695Z,3.27
2022-09-26T19:53:33.333Z,3.43
2022-09-26T19:56:00.647Z,3.20
2022-09-26T19:58:30.912Z,2.87
2022-09-26T20:00:58.522Z,2.90
2022-09-26T20:03:39.606Z,2.60
2022-09-26T20:06:21.034Z,2.80
2022-09-26T20:08:48.571Z,3.20
2022-09-26T20:11:16.436Z,3.43
2022-09-26T20:14:01.938Z,3.13
2022-09-26T20:16:31.721Z,3.50
2022-09-26T20:18:58.572Z,2.90
2022-09-26T20:21:27.254Z,2.90
2022-09-26T20:23:54.382Z,3.07
2022-09-26T20:26:20.972Z,3.20
2022-09-26T20:28:47.538Z,3.10
2022-09-26T20:31:27.435Z,3.30
2022-09-26T20:33:54.795Z,3.50
2022-09-26T20:36:27.222Z,3.30
2022-09-26T20:38:55.583Z,3.10
2022-09-26T20:41:42.522Z,2.73
2022-09-26T20:44:29.940Z,3.13
2022-09-26T20:47:01.435Z,2.90
2022-09-26T20:49:30.273Z,3.27
2022-09-26T20:51:57.685Z,3.07
2022-09-26T20:54:31.767Z,3.17
2022-09-26T20:56:58.931Z,2.97
2022-09-26T20:59:25.733Z,3.37
2022-09-26T21:01:52.789Z,3.03
2022-09-26T21:04:20.048Z,2.93
2022-09-26T21:06:46.624Z,3.30
2022-09-26T21:09:17.173Z,2.73
2022-09-26T21:11:44.037Z,2.40
2022-09-26T21:14:10.616Z,2.63
2022-09-26T21:16:43.836Z,3.43
2022-09-26T21:19:19.502Z,2.83
2022-09-26T21:21:46.055Z,3.23
2022-09-26T21:24:25.129Z,3.07
2022-09-26T21:26:52.052Z,3.03
2022-09-26T21:29:18.705Z,2.90
2022-09-26T21:31:48.372Z,3.70
2022-09-26T21:34:20.484Z,2.83
2022-09-26T21:36:47.169Z,2.87
2022-09-26T21:39:14.839Z,2.80
2022-09-26T21:41:41.459Z,2.83
2022-09-26T21:44:13.702Z,2.77
2022-09-26T21:46:40.320Z,2.43
2022-09-26T21:49:06.922Z,2.50
2022-09-26T21:51:33.466Z,3.03
2022-09-26T21:54:21.625Z,2.77
2022-09-26T21:56:50.564Z,2.93
2022-09-26T21:59:18.684Z,2.77
2022-09-26T22:01:45.549Z,2.43
2022-09-26T22:04:12.158Z,2.90
2022-09-26T22:06:38.702Z,3.43
2022-09-26T22:09:05.315Z,2.80
2022-09-26T22:11:32.301Z,2.43
2022-09-26T22:13:58.865Z,2.33
2022-09-26T22:16:25.529Z,2.60
2022-09-26T22:18:52.235Z,3.00
2022-09-26T22:21:18.858Z,2.93
2022-09-26T22:23:48.896Z,2.73
2022-09-26T22:26:15.433Z,2.57
2022-09-26T22:28:41.982Z,2.83
2022-09-26T22:31:08.615Z,2.57
2022-09-26T22:33:35.219Z,2.73
2022-09-26T22:36:02.022Z,2.60
2022-09-26T22:38:28.610Z,2.70
2022-09-26T22:41:05.418Z,2.93
2022-09-26T22:43:32.492Z,2.57
2022-09-26T22:46:05.929Z,2.77
2022-09-26T22:48:36.332Z,2.30
2022-09-26T22:51:02.952Z,2.33
2022-09-26T22:53:31.138Z,2.63
2022-09-26T22:55:58.203Z,2.70
2022-09-26T22:58:25.650Z,3.00
2022-09-26T23:00:52.388Z,2.20
2022-09-26T23:03:18.962Z,2.63
2022-09-26T23:05:47.696Z,2.37
2022-09-26T23:08:14.245Z,3.03
2022-09-26T23:10:48.298Z,2.60
2022-09-26T23:13:14.841Z,2.63
2022-09-26T23:15:41.390Z,2.37
2022-09-26T23:18:07.928Z,2.53
2022-09-26T23:20:34.471Z,2.80
2022-09-26T23:23:01.018Z,2.73
2022-09-26T23:25:27.556Z,2.37
2022-09-26T23:27:54.092Z,2.73
2022-09-26T23:30:20.641Z,2.80
2022-09-26T23:32:47.209Z,2.47
2022-09-26T23:35:14.663Z,2.73
2022-09-26T23:37:41.797Z,2.30
2022-09-26T23:40:08.984Z,2.57
2022-09-26T23:42:35.550Z,2.90
2022-09-26T23:45:02.088Z,2.60
2022-09-26T23:47:28.628Z,2.37
2022-09-26T23:49:55.179Z,3.03
2022-09-26T23:52:21.751Z,2.43
2022-09-26T23:54:48.306Z,2.53
2022-09-26T23:57:14.865Z,2.27
2022-09-26T23:59:41.445Z,2.50
